sensor_id;sensor_type;location;lat;lon;timestamp;P1;durP1;ratioP1;P2;durP2;ratioP2
78207;SDS011;67481;50.244;18.288;2023-07-22T00:01:28;6.40;;;3.03;;
78207;SDS011;67481;50.244;18.288;2023-07-22T00:04:14;5.82;;;2.80;;
78207;SDS011;67481;50.244;18.288;2023-07-22T00:06:59;5.85;;;2.72;;
78207;SDS011;67481;50.244;18.288;2023-07-22T00:09:45;5.38;;;2.83;;
78207;SDS011;67481;50.244;18.288;2023-07-22T00:12:30;7.13;;;3.17;;
78207;SDS011;67481;50.244;18.288;2023-07-22T00:15:15;5.80;;;3.05;;
78207;SDS011;67481;50.244;18.288;2023-07-22T00:18:01;5.97;;;2.83;;
78207;SDS011;67481;50.244;18.288;2023-07-22T00:20:47;5.88;;;2.80;;
78207;SDS011;67481;50.244;18.288;2023-07-22T00:23:32;6.10;;;2.92;;
78207;SDS011;67481;50.244;18.288;2023-07-22T00:26:18;5.65;;;2.60;;
78207;SDS011;67481;50.244;18.288;2023-07-22T00:29:04;6.07;;;2.75;;
78207;SDS011;67481;50.244;18.288;2023-07-22T00:31:49;6.13;;;2.55;;
78207;SDS011;67481;50.244;18.288;2023-07-22T00:34:35;6.18;;;2.95;;
78207;SDS011;67481;50.244;18.288;2023-07-22T00:37:22;6.13;;;2.63;;
78207;SDS011;67481;50.244;18.288;2023-07-22T00:40:08;5.30;;;2.75;;
78207;SDS011;67481;50.244;18.288;2023-07-22T00:42:57;5.55;;;2.60;;
78207;SDS011;67481;50.244;18.288;2023-07-22T00:45:44;5.68;;;2.95;;
78207;SDS011;67481;50.244;18.288;2023-07-22T00:48:29;5.05;;;2.47;;
78207;SDS011;67481;50.244;18.288;2023-07-22T00:51:15;6.10;;;2.78;;
78207;SDS011;67481;50.244;18.288;2023-07-22T00:54:01;5.03;;;2.42;;
78207;SDS011;67481;50.244;18.288;2023-07-22T00:56:49;5.30;;;2.85;;
78207;SDS011;67481;50.244;18.288;2023-07-22T00:59:35;4.95;;;2.60;;
78207;SDS011;67481;50.244;18.288;2023-07-22T01:02:21;5.15;;;2.50;;
78207;SDS011;67481;50.244;18.288;2023-07-22T01:05:07;5.10;;;2.47;;
78207;SDS011;67481;50.244;18.288;2023-07-22T01:07:56;5.43;;;2.70;;
78207;SDS011;67481;50.244;18.288;2023-07-22T01:10:41;6.00;;;2.92;;
78207;SDS011;67481;50.244;18.288;2023-07-22T01:13:27;5.72;;;2.75;;
78207;SDS011;67481;50.244;18.288;2023-07-22T01:16:13;5.13;;;2.53;;
78207;SDS011;67481;50.244;18.288;2023-07-22T01:18:59;5.57;;;2.58;;
78207;SDS011;67481;50.244;18.288;2023-07-22T01:21:44;5.55;;;2.63;;
78207;SDS011;67481;50.244;18.288;2023-07-22T01:24:32;5.20;;;2.53;;
78207;SDS011;67481;50.244;18.288;2023-07-22T01:27:17;7.45;;;2.60;;
78207;SDS011;67481;50.244;18.288;2023-07-22T01:30:03;5.00;;;2.35;;
78207;SDS011;67481;50.244;18.288;2023-07-22T01:32:49;5.93;;;2.72;;
78207;SDS011;67481;50.244;18.288;2023-07-22T01:35:35;5.32;;;2.45;;
78207;SDS011;67481;50.244;18.288;2023-07-22T01:38:21;5.60;;;2.33;;
78207;SDS011;67481;50.244;18.288;2023-07-22T01:41:07;5.28;;;2.58;;
78207;SDS011;67481;50.244;18.288;2023-07-22T01:43:52;5.65;;;2.72;;
78207;SDS011;67481;50.244;18.288;2023-07-22T01:46:37;5.28;;;2.30;;
78207;SDS011;67481;50.244;18.288;2023-07-22T01:49:23;5.50;;;2.33;;
78207;SDS011;67481;50.244;18.288;2023-07-22T01:52:09;5.18;;;2.47;;
78207;SDS011;67481;50.244;18.288;2023-07-22T01:54:55;6.65;;;2.45;;
78207;SDS011;67481;50.244;18.288;2023-07-22T01:57:41;5.13;;;2.60;;
78207;SDS011;67481;50.244;18.288;2023-07-22T02:00:27;5.15;;;2.42;;
78207;SDS011;67481;50.244;18.288;2023-07-22T02:03:13;4.75;;;2.15;;
78207;SDS011;67481;50.244;18.288;2023-07-22T02:06:02;5.90;;;2.70;;
78207;SDS011;67481;50.244;18.288;2023-07-22T02:08:50;5.38;;;2.47;;
78207;SDS011;67481;50.244;18.288;2023-07-22T02:11:36;6.75;;;2.30;;
78207;SDS011;67481;50.244;18.288;2023-07-22T02:14:21;4.93;;;2.50;;
78207;SDS011;67481;50.244;18.288;2023-07-22T02:17:07;6.65;;;2.40;;
78207;SDS011;67481;50.244;18.288;2023-07-22T02:19:55;5.60;;;2.70;;
78207;SDS011;67481;50.244;18.288;2023-07-22T02:22:40;5.38;;;2.75;;
78207;SDS011;67481;50.244;18.288;2023-07-22T02:25:26;6.65;;;2.70;;
78207;SDS011;67481;50.244;18.288;2023-07-22T02:28:12;6.88;;;2.05;;
78207;SDS011;67481;50.244;18.288;2023-07-22T02:31:00;5.13;;;2.60;;
78207;SDS011;67481;50.244;18.288;2023-07-22T02:33:47;5.80;;;2.35;;
78207;SDS011;67481;50.244;18.288;2023-07-22T02:36:33;5.45;;;2.45;;
78207;SDS011;67481;50.244;18.288;2023-07-22T02:39:18;6.72;;;2.17;;
78207;SDS011;67481;50.244;18.288;2023-07-22T02:42:03;9.52;;;2.60;;
78207;SDS011;67481;50.244;18.288;2023-07-22T02:44:49;4.80;;;2.45;;
78207;SDS011;67481;50.244;18.288;2023-07-22T02:47:35;4.45;;;1.92;;
78207;SDS011;67481;50.244;18.288;2023-07-22T02:50:20;6.63;;;2.17;;
78207;SDS011;67481;50.244;18.288;2023-07-22T02:53:06;7.20;;;2.33;;
78207;SDS011;67481;50.244;18.288;2023-07-22T02:55:51;10.20;;;2.47;;
78207;SDS011;67481;50.244;18.288;2023-07-22T02:58:36;6.18;;;2.40;;
78207;SDS011;67481;50.244;18.288;2023-07-22T03:01:22;5.05;;;2.17;;
78207;SDS011;67481;50.244;18.288;2023-07-22T03:04:08;6.13;;;1.90;;
78207;SDS011;67481;50.244;18.288;2023-07-22T03:06:54;4.18;;;2.22;;
78207;SDS011;67481;50.244;18.288;2023-07-22T03:09:40;7.97;;;1.90;;
78207;SDS011;67481;50.244;18.288;2023-07-22T03:12:25;6.35;;;2.30;;
78207;SDS011;67481;50.244;18.288;2023-07-22T03:15:11;6.30;;;2.28;;
78207;SDS011;67481;50.244;18.288;2023-07-22T03:17:57;4.95;;;1.98;;
78207;SDS011;67481;50.244;18.288;2023-07-22T03:20:44;5.90;;;2.40;;
78207;SDS011;67481;50.244;18.288;2023-07-22T03:23:30;5.90;;;2.50;;
78207;SDS011;67481;50.244;18.288;2023-07-22T03:26:15;5.38;;;1.98;;
78207;SDS011;67481;50.244;18.288;2023-07-22T03:29:01;6.25;;;3.42;;
78207;SDS011;67481;50.244;18.288;2023-07-22T03:31:46;6.45;;;2.03;;
78207;SDS011;67481;50.244;18.288;2023-07-22T03:34:31;6.90;;;2.42;;
78207;SDS011;67481;50.244;18.288;2023-07-22T03:37:17;9.27;;;2.25;;
78207;SDS011;67481;50.244;18.288;2023-07-22T03:40:05;7.05;;;2.20;;
78207;SDS011;67481;50.244;18.288;2023-07-22T03:42:59;4.82;;;1.95;;
78207;SDS011;67481;50.244;18.288;2023-07-22T03:45:44;5.28;;;2.30;;
78207;SDS011;67481;50.244;18.288;2023-07-22T03:48:30;5.10;;;1.95;;
78207;SDS011;67481;50.244;18.288;2023-07-22T03:51:15;4.78;;;2.00;;
78207;SDS011;67481;50.244;18.288;2023-07-22T03:54:05;6.10;;;2.42;;
78207;SDS011;67481;50.244;18.288;2023-07-22T03:56:50;5.68;;;2.05;;
78207;SDS011;67481;50.244;18.288;2023-07-22T03:59:36;4.68;;;1.92;;
78207;SDS011;67481;50.244;18.288;2023-07-22T04:02:21;4.03;;;1.92;;
78207;SDS011;67481;50.244;18.288;2023-07-22T04:05:07;7.00;;;2.03;;
78207;SDS011;67481;50.244;18.288;2023-07-22T04:07:53;4.80;;;2.05;;
78207;SDS011;67481;50.244;18.288;2023-07-22T04:10:39;5.25;;;2.17;;
78207;SDS011;67481;50.244;18.288;2023-07-22T04:13:25;7.18;;;2.35;;
78207;SDS011;67481;50.244;18.288;2023-07-22T04:16:11;4.05;;;1.95;;
78207;SDS011;67481;50.244;18.288;2023-07-22T04:18:57;5.55;;;2.10;;
78207;SDS011;67481;50.244;18.288;2023-07-22T04:21:42;4.78;;;1.52;;
78207;SDS011;67481;50.244;18.288;2023-07-22T04:24:28;6.30;;;1.85;;
78207;SDS011;67481;50.244;18.288;2023-07-22T04:27:16;5.65;;;2.03;;
78207;SDS011;67481;50.244;18.288;2023-07-22T04:30:04;5.40;;;2.08;;
78207;SDS011;67481;50.244;18.288;2023-07-22T04:32:50;5.20;;;1.92;;
78207;SDS011;67481;50.244;18.288;2023-07-22T04:35:40;4.55;;;2.05;;
78207;SDS011;67481;50.244;18.288;2023-07-22T04:38:26;4.80;;;2.05;;
78207;SDS011;67481;50.244;18.288;2023-07-22T04:41:12;5.20;;;2.05;;
78207;SDS011;67481;50.244;18.288;2023-07-22T04:43:57;4.55;;;1.92;;
78207;SDS011;67481;50.244;18.288;2023-07-22T04:46:43;6.05;;;2.10;;
78207;SDS011;67481;50.244;18.288;2023-07-22T04:49:29;5.10;;;1.88;;
78207;SDS011;67481;50.244;18.288;2023-07-22T04:52:14;4.45;;;2.08;;
78207;SDS011;67481;50.244;18.288;2023-07-22T04:54:59;5.38;;;1.88;;
78207;SDS011;67481;50.244;18.288;2023-07-22T04:57:45;7.45;;;2.05;;
78207;SDS011;67481;50.244;18.288;2023-07-22T05:00:31;5.40;;;1.85;;
78207;SDS011;67481;50.244;18.288;2023-07-22T05:03:17;4.25;;;2.30;;
78207;SDS011;67481;50.244;18.288;2023-07-22T05:06:04;5.07;;;2.17;;
78207;SDS011;67481;50.244;18.288;2023-07-22T05:08:49;6.88;;;3.38;;
78207;SDS011;67481;50.244;18.288;2023-07-22T05:11:34;8.15;;;3.92;;
78207;SDS011;67481;50.244;18.288;2023-07-22T05:14:20;9.63;;;4.20;;
78207;SDS011;67481;50.244;18.288;2023-07-22T05:17:05;7.93;;;4.22;;
78207;SDS011;67481;50.244;18.288;2023-07-22T05:19:51;10.18;;;4.47;;
78207;SDS011;67481;50.244;18.288;2023-07-22T05:22:36;8.73;;;4.47;;
78207;SDS011;67481;50.244;18.288;2023-07-22T05:25:23;7.40;;;4.13;;
78207;SDS011;67481;50.244;18.288;2023-07-22T05:28:08;9.38;;;4.15;;
78207;SDS011;67481;50.244;18.288;2023-07-22T05:30:55;8.70;;;4.30;;
78207;SDS011;67481;50.244;18.288;2023-07-22T05:33:41;7.53;;;4.43;;
78207;SDS011;67481;50.244;18.288;2023-07-22T05:36:27;8.60;;;4.03;;
78207;SDS011;67481;50.244;18.288;2023-07-22T05:39:13;10.43;;;4.72;;
78207;SDS011;67481;50.244;18.288;2023-07-22T05:42:02;6.88;;;3.88;;
78207;SDS011;67481;50.244;18.288;2023-07-22T05:44:48;9.25;;;4.03;;
78207;SDS011;67481;50.244;18.288;2023-07-22T05:47:33;9.82;;;4.53;;
78207;SDS011;67481;50.244;18.288;2023-07-22T05:50:20;12.25;;;3.72;;
78207;SDS011;67481;50.244;18.288;2023-07-22T05:53:05;7.18;;;4.03;;
78207;SDS011;67481;50.244;18.288;2023-07-22T05:55:50;7.28;;;3.78;;
78207;SDS011;67481;50.244;18.288;2023-07-22T05:58:36;9.73;;;3.53;;
78207;SDS011;67481;50.244;18.288;2023-07-22T06:01:22;7.55;;;3.08;;
78207;SDS011;67481;50.244;18.288;2023-07-22T06:04:09;7.55;;;3.50;;
78207;SDS011;67481;50.244;18.288;2023-07-22T06:06:54;7.25;;;3.35;;
78207;SDS011;67481;50.244;18.288;2023-07-22T06:09:39;6.32;;;3.03;;
78207;SDS011;67481;50.244;18.288;2023-07-22T06:12:25;7.18;;;3.13;;
78207;SDS011;67481;50.244;18.288;2023-07-22T06:15:15;6.22;;;2.53;;
78207;SDS011;67481;50.244;18.288;2023-07-22T06:18:01;5.10;;;2.70;;
78207;SDS011;67481;50.244;18.288;2023-07-22T06:20:47;6.68;;;2.33;;
78207;SDS011;67481;50.244;18.288;2023-07-22T06:23:33;5.95;;;2.58;;
78207;SDS011;67481;50.244;18.288;2023-07-22T06:26:18;7.93;;;3.42;;
78207;SDS011;67481;50.244;18.288;2023-07-22T06:29:06;7.25;;;2.58;;
78207;SDS011;67481;50.244;18.288;2023-07-22T06:31:51;6.20;;;2.28;;
78207;SDS011;67481;50.244;18.288;2023-07-22T06:34:37;5.78;;;2.50;;
78207;SDS011;67481;50.244;18.288;2023-07-22T06:37:22;8.77;;;2.40;;
78207;SDS011;67481;50.244;18.288;2023-07-22T06:40:09;5.38;;;2.10;;
78207;SDS011;67481;50.244;18.288;2023-07-22T06:42:55;5.38;;;2.42;;
78207;SDS011;67481;50.244;18.288;2023-07-22T06:45:40;5.22;;;2.42;;
78207;SDS011;67481;50.244;18.288;2023-07-22T06:48:26;6.68;;;2.72;;
78207;SDS011;67481;50.244;18.288;2023-07-22T06:51:12;6.97;;;3.20;;
78207;SDS011;67481;50.244;18.288;2023-07-22T06:53:58;5.78;;;3.33;;
78207;SDS011;67481;50.244;18.288;2023-07-22T06:56:43;6.03;;;2.72;;
78207;SDS011;67481;50.244;18.288;2023-07-22T06:59:29;6.72;;;3.05;;
78207;SDS011;67481;50.244;18.288;2023-07-22T07:02:14;5.70;;;2.63;;
78207;SDS011;67481;50.244;18.288;2023-07-22T07:05:00;6.63;;;2.42;;
78207;SDS011;67481;50.244;18.288;2023-07-22T07:07:48;7.80;;;2.65;;
78207;SDS011;67481;50.244;18.288;2023-07-22T07:10:37;5.20;;;2.30;;
78207;SDS011;67481;50.244;18.288;2023-07-22T07:13:24;5.25;;;1.95;;
78207;SDS011;67481;50.244;18.288;2023-07-22T07:16:23;5.35;;;2.33;;
78207;SDS011;67481;50.244;18.288;2023-07-22T07:19:13;4.53;;;1.98;;
78207;SDS011;67481;50.244;18.288;2023-07-22T07:21:59;5.65;;;2.10;;
78207;SDS011;67481;50.244;18.288;2023-07-22T07:24:44;5.78;;;1.98;;
78207;SDS011;67481;50.244;18.288;2023-07-22T07:27:30;7.47;;;2.22;;
78207;SDS011;67481;50.244;18.288;2023-07-22T07:30:15;6.55;;;1.85;;
78207;SDS011;67481;50.244;18.288;2023-07-22T07:33:01;4.72;;;1.95;;
78207;SDS011;67481;50.244;18.288;2023-07-22T07:35:46;4.22;;;2.03;;
78207;SDS011;67481;50.244;18.288;2023-07-22T07:38:32;4.38;;;2.03;;
78207;SDS011;67481;50.244;18.288;2023-07-22T07:41:18;6.50;;;2.70;;
78207;SDS011;67481;50.244;18.288;2023-07-22T07:44:04;4.90;;;2.20;;
78207;SDS011;67481;50.244;18.288;2023-07-22T07:46:49;4.90;;;2.03;;
78207;SDS011;67481;50.244;18.288;2023-07-22T07:49:35;4.95;;;2.20;;
78207;SDS011;67481;50.244;18.288;2023-07-22T07:52:22;3.65;;;2.03;;
78207;SDS011;67481;50.244;18.288;2023-07-22T07:55:08;6.05;;;2.30;;
78207;SDS011;67481;50.244;18.288;2023-07-22T07:57:53;5.88;;;2.00;;
78207;SDS011;67481;50.244;18.288;2023-07-22T08:00:38;5.18;;;2.40;;
78207;SDS011;67481;50.244;18.288;2023-07-22T08:03:24;5.80;;;2.70;;
78207;SDS011;67481;50.244;18.288;2023-07-22T08:06:10;4.60;;;2.03;;
78207;SDS011;67481;50.244;18.288;2023-07-22T08:08:56;5.50;;;2.10;;
78207;SDS011;67481;50.244;18.288;2023-07-22T08:11:41;4.18;;;1.85;;
78207;SDS011;67481;50.244;18.288;2023-07-22T08:14:27;6.15;;;2.40;;
78207;SDS011;67481;50.244;18.288;2023-07-22T08:17:13;4.63;;;2.00;;
78207;SDS011;67481;50.244;18.288;2023-07-22T08:19:58;5.95;;;1.73;;
78207;SDS011;67481;50.244;18.288;2023-07-22T08:22:44;4.07;;;2.05;;
78207;SDS011;67481;50.244;18.288;2023-07-22T08:25:29;5.85;;;1.75;;
78207;SDS011;67481;50.244;18.288;2023-07-22T08:28:16;6.07;;;1.83;;
78207;SDS011;67481;50.244;18.288;2023-07-22T08:31:02;4.32;;;1.75;;
78207;SDS011;67481;50.244;18.288;2023-07-22T08:33:48;4.40;;;1.70;;
78207;SDS011;67481;50.244;18.288;2023-07-22T08:36:33;4.57;;;1.95;;
78207;SDS011;67481;50.244;18.288;2023-07-22T08:39:19;6.32;;;1.80;;
78207;SDS011;67481;50.244;18.288;2023-07-22T08:42:04;4.45;;;1.83;;
78207;SDS011;67481;50.244;18.288;2023-07-22T08:44:53;5.80;;;1.90;;
78207;SDS011;67481;50.244;18.288;2023-07-22T08:47:44;5.10;;;1.48;;
78207;SDS011;67481;50.244;18.288;2023-07-22T08:50:31;3.80;;;1.50;;
78207;SDS011;67481;50.244;18.288;2023-07-22T08:53:23;3.45;;;1.15;;
78207;SDS011;67481;50.244;18.288;2023-07-22T08:56:10;5.22;;;1.30;;
78207;SDS011;67481;50.244;18.288;2023-07-22T08:58:56;4.40;;;1.45;;
78207;SDS011;67481;50.244;18.288;2023-07-22T09:01:43;3.10;;;1.05;;
78207;SDS011;67481;50.244;18.288;2023-07-22T09:04:29;3.03;;;1.00;;
78207;SDS011;67481;50.244;18.288;2023-07-22T09:07:14;3.63;;;1.30;;
78207;SDS011;67481;50.244;18.288;2023-07-22T09:10:00;3.60;;;1.30;;
78207;SDS011;67481;50.244;18.288;2023-07-22T09:12:45;6.93;;;1.42;;
78207;SDS011;67481;50.244;18.288;2023-07-22T09:15:34;2.80;;;1.15;;
78207;SDS011;67481;50.244;18.288;2023-07-22T09:18:21;3.65;;;1.30;;
78207;SDS011;67481;50.244;18.288;2023-07-22T09:21:06;3.75;;;1.40;;
78207;SDS011;67481;50.244;18.288;2023-07-22T09:23:51;4.38;;;1.30;;
78207;SDS011;67481;50.244;18.288;2023-07-22T09:26:36;3.63;;;1.60;;
78207;SDS011;67481;50.244;18.288;2023-07-22T09:29:38;4.20;;;1.30;;
78207;SDS011;67481;50.244;18.288;2023-07-22T09:32:34;4.07;;;1.40;;
78207;SDS011;67481;50.244;18.288;2023-07-22T09:35:22;4.50;;;1.65;;
78207;SDS011;67481;50.244;18.288;2023-07-22T09:38:09;4.28;;;1.45;;
78207;SDS011;67481;50.244;18.288;2023-07-22T09:40:55;3.35;;;1.52;;
78207;SDS011;67481;50.244;18.288;2023-07-22T09:43:40;3.88;;;1.55;;
78207;SDS011;67481;50.244;18.288;2023-07-22T09:46:30;3.80;;;1.23;;
78207;SDS011;67481;50.244;18.288;2023-07-22T09:49:18;4.03;;;1.73;;
78207;SDS011;67481;50.244;18.288;2023-07-22T09:52:08;6.13;;;1.50;;
78207;SDS011;67481;50.244;18.288;2023-07-22T09:54:58;3.70;;;1.60;;
78207;SDS011;67481;50.244;18.288;2023-07-22T09:57:50;4.68;;;1.73;;
78207;SDS011;67481;50.244;18.288;2023-07-22T10:00:37;4.10;;;1.83;;
78207;SDS011;67481;50.244;18.288;2023-07-22T10:03:24;4.25;;;1.70;;
78207;SDS011;67481;50.244;18.288;2023-07-22T10:06:14;4.13;;;1.95;;
78207;SDS011;67481;50.244;18.288;2023-07-22T10:09:04;4.80;;;1.80;;
78207;SDS011;67481;50.244;18.288;2023-07-22T10:11:53;5.80;;;1.75;;
78207;SDS011;67481;50.244;18.288;2023-07-22T10:14:39;3.28;;;1.55;;
78207;SDS011;67481;50.244;18.288;2023-07-22T10:17:24;3.33;;;1.85;;
78207;SDS011;67481;50.244;18.288;2023-07-22T10:20:12;4.38;;;2.10;;
78207;SDS011;67481;50.244;18.288;2023-07-22T10:23:05;6.20;;;2.20;;
